Time;durP1;ratioP1;P1;durP2;ratioP2;P2;SDS_P1;SDS_P2;PMS_P1;PMS_P2;Temp;Humidity;BMP_temperature;BMP_pressure;BME280_temperature;BME280_humidity;BME280_pressure;Samples;Min_cycle;Max_cycle;Signal;HPM_P1;HPM_P2
2022/09/15 00:01:16;;;;;;;10.82;5.22;;;16.70;99.90;;;;;;5050192;28;20197;-68
2022/09/15 00:03:43;;;;;;;7.72;5.00;;;16.70;99.90;;;;;;5059143;28;20209;-69
2022/09/15 00:06:11;;;;;;;8.57;5.78;;;16.60;99.90;;;;;;5051282;28;20226;-69
2022/09/15 00:08:38;;;;;;;10.00;5.60;;;16.60;99.90;;;;;;5044362;28;20221;-69
2022/09/15 00:11:08;;;;;;;7.40;5.18;;;16.60;99.90;;;;;;5051215;28;20229;-71
2022/09/15 00:13:37;;;;;;;9.10;4.57;;;16.60;99.90;;;;;;5050769;28;20569;-70
2022/09/15 00:16:05;;;;;;;7.90;5.20;;;16.60;99.90;;;;;;5052012;28;20545;-70
2022/09/15 00:18:32;;;;;;;10.57;5.60;;;16.60;99.90;;;;;;5043287;28;20209;-70
2022/09/15 00:20:59;;;;;;;10.80;5.30;;;16.60;99.90;;;;;;5051601;28;20305;-69
2022/09/15 00:23:27;;;;;;;9.55;5.20;;;16.60;99.90;;;;;;5048445;28;20237;-70
2022/09/15 00:25:54;;;;;;;9.82;5.40;;;16.60;99.90;;;;;;5050828;28;20637;-70
2022/09/15 00:28:22;;;;;;;5.38;4.72;;;16.50;99.90;;;;;;5039258;28;20210;-70
2022/09/15 00:30:53;;;;;;;6.88;5.03;;;16.50;99.90;;;;;;5040615;28;20233;-70
2022/09/15 00:33:21;;;;;;;7.60;5.18;;;16.50;99.90;;;;;;5049766;28;20201;-70
2022/09/15 00:35:49;;;;;;;6.28;5.22;;;16.50;99.90;;;;;;5047583;28;20722;-69
2022/09/15 00:38:17;;;;;;;6.30;4.82;;;16.40;99.90;;;;;;5049709;28;20567;-70
2022/09/15 00:40:48;;;;;;;10.57;5.57;;;16.40;99.90;;;;;;5048576;28;20569;-70
2022/09/15 00:43:16;;;;;;;10.47;5.67;;;16.50;99.90;;;;;;5049784;28;20206;-71
2022/09/15 00:45:43;;;;;;;8.70;5.45;;;16.40;99.90;;;;;;5037087;28;20215;-70
2022/09/15 00:48:12;;;;;;;9.40;5.93;;;16.40;99.90;;;;;;5047713;28;20237;-69
2022/09/15 00:50:41;;;;;;;8.02;5.72;;;16.40;99.90;;;;;;5050719;28;20214;-68
2022/09/15 00:53:09;;;;;;;9.57;6.15;;;16.40;99.90;;;;;;5051603;28;20212;-68
2022/09/15 00:55:39;;;;;;;7.75;5.43;;;16.40;99.90;;;;;;5050934;28;20718;-68
2022/09/15 00:58:11;;;;;;;11.73;5.80;;;16.40;99.90;;;;;;5048043;28;20205;-69
2022/09/15 01:00:43;;;;;;;7.78;6.03;;;16.40;99.90;;;;;;5046657;28;20202;-70
2022/09/15 01:03:10;;;;;;;8.63;5.57;;;16.40;99.90;;;;;;5036371;28;20206;-70
2022/09/15 01:05:42;;;;;;;9.07;5.75;;;16.40;99.90;;;;;;5051297;28;20216;-69
2022/09/15 01:08:13;;;;;;;10.18;5.93;;;16.40;99.90;;;;;;5050468;28;20221;-69
2022/09/15 01:10:41;;;;;;;7.15;5.88;;;16.40;99.90;;;;;;5051126;28;20209;-70
2022/09/15 01:13:11;;;;;;;9.38;6.20;;;16.40;99.90;;;;;;5056102;28;20217;-70
2022/09/15 01:15:45;;;;;;;14.45;6.35;;;16.40;99.90;;;;;;5048463;28;20202;-69
2022/09/15 01:18:19;;;;;;;8.18;5.95;;;16.40;99.90;;;;;;5050442;28;20200;-70
2022/09/15 01:21:02;;;;;;;10.18;6.00;;;16.40;99.90;;;;;;5051226;28;20555;-70
2022/09/15 01:23:57;;;;;;;10.80;6.95;;;16.30;99.90;;;;;;5064455;28;20229;-70
2022/09/15 01:26:56;;;;;;;9.85;6.38;;;16.30;99.90;;;;;;5052357;28;20285;-68
2022/09/15 01:29:54;;;;;;;11.35;6.40;;;16.30;99.90;;;;;;5046586;28;20693;-70
2022/09/15 01:35:26;;;;;;;10.23;6.63;;;16.30;99.90;;;;;;5047010;28;20521;-69
2022/09/15 01:37:58;;;;;;;13.40;6.90;;;16.30;99.90;;;;;;5044338;28;20209;-69
2022/09/15 01:40:37;;;;;;;12.20;6.70;;;16.30;99.90;;;;;;5052607;28;20244;-70
2022/09/15 01:43:05;;;;;;;9.95;6.45;;;16.30;99.90;;;;;;5052406;28;20206;-69
2022/09/15 01:45:35;;;;;;;9.10;6.32;;;16.30;99.90;;;;;;5038675;28;20217;-69
2022/09/15 01:48:05;;;;;;;11.05;6.95;;;16.30;99.90;;;;;;5043650;28;20585;-69
2022/09/15 01:50:36;;;;;;;9.65;6.63;;;16.30;99.90;;;;;;5033219;28;20206;-71
2022/09/15 01:53:08;;;;;;;9.20;6.03;;;16.30;99.90;;;;;;5042348;28;20431;-70
2022/09/15 01:55:39;;;;;;;9.82;6.70;;;16.30;99.90;;;;;;5044362;28;20254;-70
2022/09/15 01:58:06;;;;;;;11.85;6.60;;;16.30;99.90;;;;;;5038530;28;20608;-69
2022/09/15 02:00:39;;;;;;;12.68;7.05;;;16.30;99.90;;;;;;5052183;28;20202;-70
2022/09/15 02:03:16;;;;;;;12.85;7.78;;;16.30;99.90;;;;;;5049114;28;20202;-69
2022/09/15 02:05:46;;;;;;;10.07;6.90;;;16.20;99.90;;;;;;5051753;28;20228;-69
2022/09/15 02:08:23;;;;;;;8.00;6.93;;;16.20;99.90;;;;;;5044634;28;20220;-69
2022/09/15 02:10:57;;;;;;;10.57;7.22;;;16.20;99.90;;;;;;5045622;28;20279;-71
2022/09/15 02:13:31;;;;;;;12.27;7.25;;;16.20;99.90;;;;;;5054991;28;20722;-71
2022/09/15 02:16:01;;;;;;;9.43;7.27;;;16.20;99.90;;;;;;5059409;28;20229;-70
2022/09/15 02:18:37;;;;;;;12.00;7.22;;;16.20;99.90;;;;;;5051317;28;20609;-71
2022/09/15 02:21:09;;;;;;;11.82;7.63;;;16.10;99.90;;;;;;5051643;28;20198;-70
2022/09/15 02:23:42;;;;;;;12.35;7.30;;;16.20;99.90;;;;;;5051044;28;20248;-70
2022/09/15 02:26:16;;;;;;;10.38;8.02;;;16.20;99.90;;;;;;5051059;28;20205;-70
2022/09/15 02:28:45;;;;;;;8.65;6.60;;;16.20;99.90;;;;;;5067268;28;20207;-70
2022/09/15 02:31:16;;;;;;;11.70;7.80;;;16.10;99.90;;;;;;5053078;28;20206;-70
2022/09/15 02:33:47;;;;;;;10.65;7.47;;;16.20;99.90;;;;;;5052688;28;20621;-70
2022/09/15 02:36:18;;;;;;;12.10;7.75;;;16.10;99.90;;;;;;5053972;28;20777;-69
2022/09/15 02:38:49;;;;;;;9.80;6.80;;;16.10;99.90;;;;;;5053963;28;20651;-70
2022/09/15 02:41:16;;;;;;;9.20;6.90;;;16.10;99.90;;;;;;5054038;28;20202;-70
2022/09/15 02:43:47;;;;;;;9.18;8.07;;;16.10;99.90;;;;;;5055319;28;20202;-70
2022/09/15 02:46:15;;;;;;;9.15;7.40;;;16.10;99.90;;;;;;5055441;28;20210;-71
2022/09/15 02:48:42;;;;;;;10.37;7.60;;;16.10;99.90;;;;;;5066306;28;20240;-71
2022/09/15 02:51:09;;;;;;;10.48;7.63;;;16.10;99.90;;;;;;5068777;28;20636;-71
2022/09/15 02:53:36;;;;;;;12.27;7.87;;;16.10;99.90;;;;;;5054824;28;20205;-70
2022/09/15 02:56:04;;;;;;;10.15;7.25;;;16.10;99.90;;;;;;5053885;28;20212;-70
2022/09/15 02:58:31;;;;;;;14.30;8.23;;;16.10;99.90;;;;;;5054281;28;20221;-69
2022/09/15 03:00:58;;;;;;;8.23;7.05;;;16.10;99.90;;;;;;5054235;28;20900;-70
2022/09/15 03:03:26;;;;;;;9.87;7.50;;;16.00;99.90;;;;;;5054173;28;20209;-71
2022/09/15 03:05:53;;;;;;;12.03;7.93;;;16.00;99.90;;;;;;5040643;28;20214;-70
2022/09/15 03:08:20;;;;;;;10.63;7.70;;;16.00;99.90;;;;;;5047987;28;20227;-70
2022/09/15 03:10:47;;;;;;;13.02;8.57;;;16.00;99.90;;;;;;5047972;28;20697;-69
2022/09/15 03:13:14;;;;;;;13.27;7.63;;;16.00;99.90;;;;;;5051116;28;20238;-69
2022/09/15 03:15:40;;;;;;;13.50;7.90;;;16.00;99.90;;;;;;5052201;28;20205;-70
2022/09/15 03:18:07;;;;;;;16.67;8.10;;;16.00;99.90;;;;;;5046957;28;20558;-69
2022/09/15 03:20:36;;;;;;;20.15;8.63;;;15.90;99.90;;;;;;5053951;28;20202;-69
2022/09/15 03:23:03;;;;;;;11.00;8.30;;;15.90;99.90;;;;;;5054477;28;20229;-70
2022/09/15 03:25:29;;;;;;;11.43;8.73;;;15.90;99.90;;;;;;5052860;28;20780;-70
2022/09/15 03:27:57;;;;;;;12.38;8.35;;;16.00;99.90;;;;;;5053346;28;20228;-70
2022/09/15 03:30:23;;;;;;;10.20;7.67;;;16.00;99.90;;;;;;5054682;28;20297;-70
2022/09/15 03:32:50;;;;;;;9.80;7.40;;;16.00;99.90;;;;;;5052841;28;20210;-70
2022/09/15 03:35:17;;;;;;;10.40;8.20;;;15.90;99.90;;;;;;5058227;28;20279;-69
2022/09/15 03:37:45;;;;;;;12.57;8.77;;;15.90;99.90;;;;;;5048605;28;20198;-69
2022/09/15 03:40:13;;;;;;;12.95;8.90;;;15.90;99.90;;;;;;5046923;28;20268;-69
2022/09/15 03:42:40;;;;;;;11.63;8.98;;;15.90;99.90;;;;;;5053114;28;20213;-69
2022/09/15 03:45:07;;;;;;;11.37;8.63;;;15.90;99.90;;;;;;5052992;28;20206;-69
2022/09/15 03:47:34;;;;;;;9.37;8.10;;;15.80;99.90;;;;;;5051976;28;20229;-69
2022/09/15 03:50:01;;;;;;;10.18;8.43;;;15.80;99.90;;;;;;5050099;28;20206;-70
2022/09/15 03:52:31;;;;;;;13.33;8.90;;;15.80;99.90;;;;;;5050819;28;20681;-69
2022/09/15 03:54:59;;;;;;;11.15;8.20;;;15.80;99.90;;;;;;5050206;28;20206;-70
2022/09/15 03:57:26;;;;;;;11.93;8.80;;;15.80;99.90;;;;;;5053859;28;20293;-69
2022/09/15 03:59:52;;;;;;;11.57;8.13;;;15.80;99.90;;;;;;5055219;28;20259;-69
2022/09/15 04:02:20;;;;;;;14.70;8.57;;;15.80;99.90;;;;;;5068392;28;20220;-70
2022/09/15 04:04:48;;;;;;;13.82;9.18;;;15.80;99.90;;;;;;5053255;28;20233;-70
2022/09/15 04:07:15;;;;;;;12.77;8.63;;;15.80;99.90;;;;;;5052018;28;20233;-69
2022/09/15 04:09:41;;;;;;;14.83;8.03;;;15.80;99.90;;;;;;5051517;28;20217;-70
2022/09/15 04:12:10;;;;;;;10.77;7.73;;;15.80;99.90;;;;;;5047893;28;20216;-70
2022/09/15 04:14:37;;;;;;;12.52;8.55;;;15.70;99.90;;;;;;5065062;28;20212;-70
2022/09/15 04:17:04;;;;;;;11.95;7.72;;;15.80;99.90;;;;;;5047537;28;20221;-69
2022/09/15 04:19:30;;;;;;;12.75;8.27;;;15.70;99.90;;;;;;5044259;28;20214;-70
2022/09/15 04:21:57;;;;;;;9.17;7.20;;;15.70;99.90;;;;;;5046612;28;20237;-69
2022/09/15 04:24:24;;;;;;;12.73;7.63;;;15.70;99.90;;;;;;5050399;28;20212;-70
2022/09/15 04:26:50;;;;;;;11.37;7.60;;;15.70;99.90;;;;;;5052141;28;20206;-71
2022/09/15 04:29:19;;;;;;;12.03;7.50;;;15.70;99.90;;;;;;5052530;28;20202;-70
2022/09/15 04:31:46;;;;;;;10.70;7.25;;;15.70;99.90;;;;;;5052934;28;20620;-70
2022/09/15 04:34:13;;;;;;;10.07;7.57;;;15.60;99.90;;;;;;5052250;28;20566;-69
2022/09/15 04:36:40;;;;;;;12.10;8.17;;;15.70;99.90;;;;;;5051781;28;20244;-69
2022/09/15 04:39:07;;;;;;;10.43;6.70;;;15.60;99.90;;;;;;5050695;28;20572;-69
2022/09/15 04:41:34;;;;;;;12.45;7.47;;;15.60;99.90;;;;;;5047811;28;20210;-69
2022/09/15 04:44:01;;;;;;;10.37;7.40;;;15.60;99.90;;;;;;5050774;28;20207;-70
2022/09/15 04:46:29;;;;;;;13.85;8.48;;;15.60;99.90;;;;;;5052268;28;20221;-70
2022/09/15 04:48:57;;;;;;;10.00;7.10;;;15.60;99.90;;;;;;5052752;28;20237;-69
2022/09/15 04:51:24;;;;;;;13.90;8.02;;;15.60;99.90;;;;;;5045925;28;20206;-69
2022/09/15 04:53:51;;;;;;;8.53;6.53;;;15.60;99.90;;;;;;5045584;28;20502;-69
2022/09/15 04:56:20;;;;;;;9.03;6.80;;;15.60;99.90;;;;;;5064805;28;20221;-69
2022/09/15 04:58:48;;;;;;;13.45;7.05;;;15.60;99.90;;;;;;5044712;28;20309;-69
2022/09/15 05:01:17;;;;;;;11.48;7.20;;;15.60;99.90;;;;;;5051173;28;20198;-70
2022/09/15 05:03:45;;;;;;;9.90;6.72;;;15.50;99.90;;;;;;5045464;28;20206;-70
2022/09/15 05:06:14;;;;;;;8.47;7.03;;;15.50;99.90;;;;;;5055522;28;20256;-70
2022/09/15 05:08:41;;;;;;;14.07;6.87;;;15.50;99.90;;;;;;5038964;28;20675;-70
2022/09/15 05:11:10;;;;;;;11.77;7.65;;;15.50;99.90;;;;;;5045895;28;20211;-70
2022/09/15 05:13:38;;;;;;;15.43;7.53;;;15.50;99.90;;;;;;5060603;28;20302;-72
2022/09/15 05:16:06;;;;;;;12.03;7.47;;;15.50;99.90;;;;;;5057770;28;20214;-71
2022/09/15 05:18:33;;;;;;;12.83;7.57;;;15.60;99.90;;;;;;5039161;28;20554;-71
2022/09/15 05:21:03;;;;;;;11.70;7.10;;;15.60;99.90;;;;;;5036526;28;20586;-75
2022/09/15 05:23:30;;;;;;;9.33;6.37;;;15.50;99.90;;;;;;5050381;28;20312;-72
2022/09/15 05:25:57;;;;;;;14.02;7.00;;;15.50;99.90;;;;;;5051737;28;20202;-72
2022/09/15 05:28:25;;;;;;;9.97;6.57;;;15.60;99.90;;;;;;5050079;28;20633;-73
2022/09/15 05:30:51;;;;;;;13.85;7.57;;;15.50;99.90;;;;;;5049777;28;20217;-72
2022/09/15 05:33:18;;;;;;;11.57;7.07;;;15.60;99.90;;;;;;5059302;28;20209;-73
2022/09/15 05:35:52;;;;;;;7.40;6.32;;;15.60;99.90;;;;;;5060757;28;20233;-72
2022/09/15 05:38:20;;;;;;;6.55;5.55;;;15.50;99.90;;;;;;5050096;28;20225;-74
2022/09/15 05:40:47;;;;;;;12.25;6.35;;;15.50;99.90;;;;;;5065617;28;20533;-73
2022/09/15 05:43:14;;;;;;;10.47;6.20;;;15.50;99.90;;;;;;5050827;28;20206;-75
2022/09/15 05:45:42;;;;;;;10.70;5.63;;;15.50;99.90;;;;;;5047451;28;20214;-74
2022/09/15 05:48:09;;;;;;;11.30;6.97;;;15.60;99.90;;;;;;5049880;28;20233;-73
2022/09/15 05:50:37;;;;;;;11.53;6.50;;;15.70;99.90;;;;;;5053313;28;20209;-73
2022/09/15 05:53:04;;;;;;;8.02;5.47;;;15.60;99.90;;;;;;5046619;28;20209;-72
2022/09/15 05:55:36;;;;;;;10.15;5.93;;;15.70;99.90;;;;;;5049270;28;20579;-72
2022/09/15 05:58:03;;;;;;;10.80;5.43;;;15.60;99.90;;;;;;5038816;28;20209;-72
2022/09/15 06:00:30;;;;;;;10.97;5.77;;;15.80;99.90;;;;;;5051272;28;20210;-72
2022/09/15 06:02:57;;;;;;;13.30;6.28;;;15.70;99.90;;;;;;5056991;28;20508;-72
2022/09/15 06:05:24;;;;;;;9.17;5.77;;;15.70;99.90;;;;;;5051813;28;20214;-74
2022/09/15 06:07:52;;;;;;;9.50;5.40;;;15.70;99.90;;;;;;5049186;28;20213;-74
2022/09/15 06:10:19;;;;;;;11.87;5.93;;;15.70;99.90;;;;;;5055183;28;20209;-74
2022/09/15 06:12:47;;;;;;;10.47;5.70;;;15.80;99.90;;;;;;5057693;28;20649;-74
2022/09/15 06:15:14;;;;;;;12.93;5.70;;;15.80;99.90;;;;;;5067623;28;20605;-74
2022/09/15 06:17:41;;;;;;;13.73;5.03;;;15.80;99.90;;;;;;5056045;28;20596;-73
2022/09/15 06:20:08;;;;;;;10.47;5.70;;;15.90;99.90;;;;;;5056476;28;20566;-74
2022/09/15 06:22:35;;;;;;;7.73;5.07;;;16.00;99.90;;;;;;5050035;28;20222;-74
2022/09/15 06:25:02;;;;;;;12.70;5.80;;;16.00;99.90;;;;;;5049359;28;20206;-74
2022/09/15 06:27:29;;;;;;;9.38;5.03;;;16.10;99.90;;;;;;5054842;28;20206;-74
2022/09/15 06:29:57;;;;;;;12.80;5.23;;;16.10;99.90;;;;;;5053189;28;20206;-74
2022/09/15 06:32:24;;;;;;;11.00;5.53;;;16.10;99.90;;;;;;5047916;28;20201;-74
2022/09/15 06:34:50;;;;;;;7.97;4.80;;;16.20;99.90;;;;;;5054991;28;20617;-74
2022/09/15 06:37:17;;;;;;;9.07;4.53;;;16.30;99.90;;;;;;5042978;28;20598;-74
2022/09/15 06:39:44;;;;;;;8.37;4.67;;;16.30;99.90;;;;;;5057528;28;20206;-74
2022/09/15 06:42:11;;;;;;;12.52;4.45;;;16.40;99.90;;;;;;5056459;28;20221;-74
2022/09/15 06:44:38;;;;;;;7.25;3.80;;;16.40;99.90;;;;;;5041378;28;20209;-74
2022/09/15 06:47:07;;;;;;;9.82;3.63;;;16.50;99.90;;;;;;5049019;28;20208;-74
2022/09/15 06:49:33;;;;;;;6.80;4.03;;;16.60;99.90;;;;;;5052032;28;20249;-73
2022/09/15 06:52:01;;;;;;;8.13;3.47;;;16.70;99.90;;;;;;5058366;28;20205;-74
2022/09/15 06:54:28;;;;;;;72.35;15.98;;;16.80;99.90;;;;;;5049348;28;20241;-72
2022/09/15 06:56:55;;;;;;;10.03;4.53;;;16.90;99.90;;;;;;5059346;28;20574;-73
2022/09/15 06:59:23;;;;;;;10.40;3.60;;;17.00;99.90;;;;;;5061396;28;20220;-74
2022/09/15 07:01:53;;;;;;;6.68;3.25;;;17.10;99.90;;;;;;5059728;28;20321;-73
2022/09/15 07:04:22;;;;;;;4.90;2.90;;;17.20;99.90;;;;;;5044996;28;20237;-73
2022/09/15 07:06:50;;;;;;;5.03;2.80;;;17.20;99.90;;;;;;5053324;28;20292;-70
2022/09/15 07:09:17;;;;;;;5.30;3.17;;;17.20;99.90;;;;;;5062322;28;20232;-73
2022/09/15 07:11:44;;;;;;;6.85;3.63;;;17.30;99.90;;;;;;5043885;28;20213;-74
2022/09/15 07:14:11;;;;;;;5.75;2.78;;;17.30;99.90;;;;;;5048572;28;20404;-74
2022/09/15 07:16:39;;;;;;;7.20;2.85;;;17.40;99.90;;;;;;5051163;28;20648;-74
2022/09/15 07:19:06;;;;;;;5.82;2.67;;;17.50;99.90;;;;;;5044438;28;20214;-73
2022/09/15 07:21:34;;;;;;;4.82;2.40;;;17.60;99.90;;;;;;5040871;28;20540;-73
2022/09/15 07:24:02;;;;;;;9.30;4.32;;;17.70;99.90;;;;;;5046373;28;20229;-74
2022/09/15 07:26:30;;;;;;;3.60;2.38;;;17.90;99.90;;;;;;5058065;28;20242;-74
2022/09/15 07:28:59;;;;;;;6.05;2.25;;;17.90;99.90;;;;;;5061620;28;20701;-75
2022/09/15 07:31:27;;;;;;;7.28;2.95;;;18.10;99.90;;;;;;5058011;28;20206;-75
2022/09/15 07:33:54;;;;;;;5.03;2.47;;;18.20;99.90;;;;;;5049392;28;20255;-74
2022/09/15 07:36:21;;;;;;;6.97;2.80;;;18.20;99.90;;;;;;5048756;28;20234;-76
2022/09/15 07:38:50;;;;;;;7.43;2.47;;;18.30;99.90;;;;;;5052261;28;20218;-76
2022/09/15 07:41:19;;;;;;;12.05;2.95;;;18.50;99.90;;;;;;5060365;28;20205;-70
2022/09/15 07:43:47;;;;;;;6.40;2.53;;;18.60;99.90;;;;;;5051552;28;20244;-74
2022/09/15 07:46:14;;;;;;;5.78;3.60;;;18.70;99.90;;;;;;5054504;28;20209;-75
2022/09/15 07:48:43;;;;;;;7.22;2.88;;;18.70;99.90;;;;;;5064636;28;20229;-74
2022/09/15 07:51:10;;;;;;;8.00;3.17;;;18.70;99.90;;;;;;5053611;28;20204;-74
2022/09/15 07:53:37;;;;;;;8.35;2.42;;;18.70;99.90;;;;;;5055920;28;20219;-73
2022/09/15 07:56:05;;;;;;;7.00;2.75;;;18.80;99.90;;;;;;5056636;28;20210;-71
2022/09/15 07:58:33;;;;;;;3.78;2.28;;;18.90;99.90;;;;;;5056905;28;20201;-73
2022/09/15 08:01:06;;;;;;;6.90;2.45;;;19.10;99.90;;;;;;5054191;28;20210;-74
2022/09/15 08:03:34;;;;;;;6.53;2.42;;;19.40;99.90;;;;;;5054592;28;20265;-72
2022/09/15 08:06:02;;;;;;;4.68;2.30;;;19.70;99.90;;;;;;5058062;28;20218;-73
2022/09/15 08:08:30;;;;;;;4.88;2.20;;;19.90;99.90;;;;;;5050763;28;20219;-74
2022/09/15 08:10:58;;;;;;;5.75;2.10;;;20.10;99.90;;;;;;5040681;28;20725;-75
2022/09/15 08:13:28;;;;;;;4.40;2.20;;;20.40;99.90;;;;;;5069798;28;20248;-73
2022/09/15 08:15:55;;;;;;;4.32;2.40;;;20.60;99.90;;;;;;5047675;28;20820;-76
2022/09/15 08:18:22;;;;;;;6.28;2.13;;;20.80;99.90;;;;;;5052302;28;20256;-76
2022/09/15 08:20:49;;;;;;;3.33;1.50;;;20.90;99.90;;;;;;5043285;28;20205;-76
2022/09/15 08:23:16;;;;;;;3.88;1.55;;;20.90;99.90;;;;;;5050081;28;20698;-76
2022/09/15 08:25:42;;;;;;;6.15;1.88;;;20.90;99.90;;;;;;5069191;28;20225;-76
2022/09/15 08:28:09;;;;;;;4.80;1.80;;;20.90;99.90;;;;;;5058561;28;20209;-76
2022/09/15 08:30:38;;;;;;;3.30;1.60;;;20.90;99.90;;;;;;5047702;28;20300;-78
2022/09/15 08:33:05;;;;;;;3.58;1.75;;;21.00;99.90;;;;;;5048131;28;20563;-76
2022/09/15 08:35:33;;;;;;;4.20;1.50;;;21.00;99.90;;;;;;5050283;28;20322;-76
2022/09/15 08:38:00;;;;;;;3.85;2.38;;;21.00;99.90;;;;;;5059578;28;20228;-76
2022/09/15 08:40:32;;;;;;;3.90;1.90;;;21.20;99.90;;;;;;5065722;28;20209;-76
2022/09/15 08:43:04;;;;;;;3.35;1.85;;;21.30;99.90;;;;;;5064856;28;20229;-76
2022/09/15 08:45:37;;;;;;;4.15;1.90;;;21.40;99.90;;;;;;5052981;28;20209;-77
2022/09/15 08:48:07;;;;;;;3.83;1.80;;;21.60;99.10;;;;;;5053890;28;20696;-76
2022/09/15 08:50:41;;;;;;;5.55;2.20;;;21.60;98.20;;;;;;5051218;28;20585;-78
2022/09/15 08:53:12;;;;;;;5.32;1.80;;;21.50;97.60;;;;;;5046296;28;20217;-78
2022/09/15 08:55:44;;;;;;;5.30;2.17;;;21.60;97.40;;;;;;5052124;28;20956;-77
2022/09/15 08:58:15;;;;;;;3.80;1.70;;;21.60;97.10;;;;;;5049751;28;20206;-77
2022/09/15 09:00:43;;;;;;;3.72;1.80;;;21.80;97.10;;;;;;5048355;28;20212;-76
2022/09/15 09:03:28;;;;;;;2.90;1.45;;;21.90;96.70;;;;;;5039857;28;20576;-77
2022/09/15 09:06:02;;;;;;;5.18;1.83;;;22.20;96.60;;;;;;5062406;28;20221;-73
2022/09/15 09:09:07;;;;;;;3.20;1.60;;;22.50;96.20;;;;;;5056770;28;20216;-75
2022/09/15 09:11:52;;;;;;;3.33;1.42;;;22.90;96.90;;;;;;5046050;28;20685;-74
2022/09/15 09:14:30;;;;;;;2.80;1.05;;;25.00;93.50;;;;;;5053480;28;20654;-74
2022/09/15 09:17:13;;;;;;;2.03;1.23;;;28.40;81.30;;;;;;5052775;28;20236;-74
2022/09/15 09:20:02;;;;;;;2.55;1.40;;;31.90;62.90;;;;;;5049287;28;20221;-73
2022/09/15 09:22:33;;;;;;;1.77;1.10;;;34.80;51.70;;;;;;5051972;28;20297;-74
2022/09/15 09:25:02;;;;;;;4.30;1.25;;;36.70;46.30;;;;;;5054748;28;20206;-74
2022/09/15 09:27:32;;;;;;;1.92;1.00;;;37.90;41.40;;;;;;5057480;28;20265;-72
2022/09/15 09:30:03;;;;;;;1.77;1.10;;;38.40;39.20;;;;;;5055222;28;20248;-75
2022/09/15 09:32:39;;;;;;;3.50;1.58;;;38.60;39.30;;;;;;5052167;28;20202;-75
2022/09/15 09:35:18;;;;;;;3.00;0.90;;;39.80;38.40;;;;;;5052448;28;20575;-74
2022/09/15 09:37:47;;;;;;;3.47;1.10;;;39.80;36.80;;;;;;5061999;28;20228;-75
2022/09/15 09:40:15;;;;;;;2.88;1.35;;;40.30;35.50;;;;;;5066814;28;20216;-74
2022/09/15 09:42:43;;;;;;;2.58;1.10;;;41.20;34.80;;;;;;5060474;28;20706;-74
2022/09/15 09:45:13;;;;;;;1.83;1.25;;;41.80;32.90;;;;;;5056249;28;20205;-75
2022/09/15 09:47:42;;;;;;;2.70;1.23;;;41.70;33.00;;;;;;5062135;28;20221;-74
2022/09/15 09:50:32;;;;;;;3.10;1.70;;;40.10;34.00;;;;;;5063111;28;20256;-74
2022/09/15 09:52:59;;;;;;;3.03;1.20;;;39.40;36.30;;;;;;5055183;28;20209;-75
2022/09/15 09:55:28;;;;;;;1.95;1.08;;;39.90;34.50;;;;;;5053020;28;20573;-74
2022/09/15 09:58:12;;;;;;;1.98;1.00;;;40.90;33.90;;;;;;5042220;28;20244;-72
2022/09/15 10:00:40;;;;;;;3.45;1.02;;;41.70;32.20;;;;;;5045369;28;20198;-73
2022/09/15 10:03:13;;;;;;;3.03;1.13;;;42.10;31.40;;;;;;5054197;28;20210;-70
2022/09/15 10:05:41;;;;;;;2.10;1.20;;;42.20;31.10;;;;;;5051284;28;20210;-71
2022/09/15 10:08:15;;;;;;;3.22;1.23;;;42.20;30.90;;;;;;5055791;28;20206;-72
2022/09/15 10:10:51;;;;;;;3.45;1.17;;;41.40;31.00;;;;;;5052354;28;20221;-72
2022/09/15 10:13:18;;;;;;;1.77;1.23;;;40.70;32.60;;;;;;5058436;28;20217;-73
2022/09/15 10:15:53;;;;;;;2.40;1.23;;;40.60;32.40;;;;;;5040862;28;20323;-72
2022/09/15 10:18:30;;;;;;;4.20;1.67;;;39.30;32.10;;;;;;5051434;28;20611;-74
2022/09/15 10:20:59;;;;;;;2.55;0.95;;;36.80;34.60;;;;;;5045640;28;20225;-73
2022/09/15 10:23:28;;;;;;;2.50;1.23;;;34.80;37.10;;;;;;5049696;28;20695;-73
2022/09/15 10:25:57;;;;;;;2.65;1.30;;;32.90;39.40;;;;;;5044347;28;20214;-72
2022/09/15 10:28:26;;;;;;;3.10;1.20;;;31.40;41.60;;;;;;5038306;28;20209;-73
2022/09/15 10:31:05;;;;;;;1.67;1.15;;;31.20;43.60;;;;;;5045188;28;20221;-72
2022/09/15 10:33:34;;;;;;;3.50;1.30;;;31.40;42.60;;;;;;5046826;28;20216;-70
2022/09/15 10:36:05;;;;;;;2.72;1.30;;;31.80;42.90;;;;;;5049509;28;20233;-72
2022/09/15 10:38:38;;;;;;;4.63;1.50;;;31.80;41.60;;;;;;5046990;28;20399;-72
2022/09/15 10:41:16;;;;;;;4.43;1.20;;;31.30;43.70;;;;;;5046463;28;20197;-71
2022/09/15 10:43:56;;;;;;;2.00;1.23;;;30.50;44.10;;;;;;5039017;28;20217;-71
2022/09/15 10:46:28;;;;;;;2.30;1.27;;;29.50;45.60;;;;;;5050312;28;20211;-71
2022/09/15 10:49:14;;;;;;;3.35;1.58;;;28.30;46.80;;;;;;5045837;28;20575;-70
2022/09/15 10:51:51;;;;;;;2.55;1.20;;;27.40;48.80;;;;;;5044673;28;20198;-70
2022/09/15 10:54:36;;;;;;;2.75;1.50;;;26.80;50.10;;;;;;5045238;28;20221;-71
2022/09/15 10:57:17;;;;;;;2.60;1.50;;;26.40;50.90;;;;;;5042500;28;20206;-72
2022/09/15 10:59:50;;;;;;;4.45;1.60;;;25.90;51.90;;;;;;5042313;28;20210;-71
2022/09/15 11:02:34;;;;;;;3.95;1.65;;;25.30;52.40;;;;;;5054613;28;20201;-71
2022/09/15 11:05:22;;;;;;;3.17;1.60;;;24.60;53.30;;;;;;5049551;28;20198;-69
2022/09/15 11:08:02;;;;;;;3.85;1.83;;;24.10;54.30;;;;;;5053899;28;20549;-70
2022/09/15 11:10:35;;;;;;;3.33;1.42;;;23.70;55.60;;;;;;5056214;28;20229;-72
2022/09/15 11:13:12;;;;;;;2.03;1.67;;;23.30;56.50;;;;;;5056737;28;20272;-71
2022/09/15 11:15:53;;;;;;;6.93;1.77;;;23.00;57.30;;;;;;5042893;28;20244;-71
2022/09/15 11:18:37;;;;;;;3.35;1.75;;;22.60;57.90;;;;;;5049148;28;20265;-71
2022/09/15 11:21:21;;;;;;;5.45;2.15;;;22.30;58.70;;;;;;5042811;28;20679;-71
2022/09/15 11:23:55;;;;;;;3.78;1.50;;;22.00;59.80;;;;;;5045845;28;20222;-72
2022/09/15 11:26:30;;;;;;;2.78;1.40;;;22.00;60.80;;;;;;5044548;28;20214;-73
2022/09/15 11:28:59;;;;;;;4.05;1.90;;;21.90;61.30;;;;;;5051029;28;20245;-70
2022/09/15 11:31:29;;;;;;;4.45;1.50;;;21.90;61.60;;;;;;5051083;28;20225;-69
2022/09/15 11:34:02;;;;;;;3.55;1.42;;;21.80;62.40;;;;;;5050461;28;20567;-71
2022/09/15 11:36:33;;;;;;;5.55;1.85;;;21.80;62.90;;;;;;5050632;28;20325;-70
2022/09/15 11:39:07;;;;;;;4.97;1.70;;;21.80;63.10;;;;;;5044104;28;20213;-70
2022/09/15 11:41:39;;;;;;;2.70;1.33;;;21.80;63.50;;;;;;5053904;28;20203;-70
2022/09/15 11:44:16;;;;;;;5.97;1.90;;;21.70;63.80;;;;;;5045704;28;20198;-70
2022/09/15 11:46:56;;;;;;;5.85;1.85;;;21.60;64.20;;;;;;5039968;28;20212;-70
2022/09/15 11:49:27;;;;;;;5.75;1.85;;;21.60;64.70;;;;;;5052961;28;20233;-71
2022/09/15 11:52:01;;;;;;;8.90;1.95;;;21.50;65.10;;;;;;5054003;28;20443;-71
2022/09/15 11:54:37;;;;;;;6.68;2.03;;;21.50;65.60;;;;;;5059651;28;20225;-70
2022/09/15 11:57:05;;;;;;;2.83;1.77;;;21.50;65.80;;;;;;5049857;28;20528;-70
2022/09/15 11:59:43;;;;;;;4.25;1.60;;;21.50;65.30;;;;;;5044868;28;20270;-70
2022/09/15 12:02:19;;;;;;;2.78;1.60;;;21.40;65.50;;;;;;5048028;28;20531;-69
2022/09/15 12:04:57;;;;;;;5.28;1.52;;;21.30;65.80;;;;;;5048159;28;20205;-71
2022/09/15 12:07:29;;;;;;;5.78;1.77;;;21.10;66.60;;;;;;5052869;28;20236;-69
2022/09/15 12:10:05;;;;;;;4.40;1.50;;;21.00;67.40;;;;;;5063537;28;20244;-70
2022/09/15 12:12:34;;;;;;;2.72;1.63;;;20.80;68.40;;;;;;5044988;28;20569;-69
2022/09/15 12:15:01;;;;;;;3.47;1.77;;;20.70;69.10;;;;;;5049057;28;20795;-70
2022/09/15 12:17:33;;;;;;;4.82;1.85;;;20.60;69.70;;;;;;5041963;28;20202;-71
2022/09/15 12:20:06;;;;;;;1.75;1.45;;;20.60;70.20;;;;;;5044515;28;20209;-70
2022/09/15 12:22:39;;;;;;;4.63;1.83;;;20.70;70.00;;;;;;5047213;28;20229;-71
2022/09/15 12:25:12;;;;;;;2.28;1.50;;;20.80;70.10;;;;;;5057188;28;20197;-69
2022/09/15 12:27:39;;;;;;;3.90;1.60;;;20.70;70.20;;;;;;5040642;28;20203;-71
2022/09/15 12:30:28;;;;;;;4.45;1.88;;;20.70;70.40;;;;;;5041155;28;20335;-70
2022/09/15 12:32:56;;;;;;;5.57;1.70;;;20.60;71.10;;;;;;5042085;28;20220;-70
2022/09/15 12:35:32;;;;;;;5.55;1.88;;;20.50;71.50;;;;;;5052843;28;20236;-70
2022/09/15 12:37:59;;;;;;;5.05;1.50;;;20.90;71.70;;;;;;5050668;28;20296;-69
2022/09/15 12:40:35;;;;;;;3.20;1.70;;;21.00;71.10;;;;;;5048314;28;20561;-70
2022/09/15 12:43:03;;;;;;;5.00;1.98;;;21.00;70.90;;;;;;5045645;28;20212;-70
2022/09/15 12:45:34;;;;;;;4.35;1.63;;;20.80;70.60;;;;;;5043532;28;20202;-71
2022/09/15 12:48:05;;;;;;;3.03;1.38;;;20.60;70.90;;;;;;5050229;28;20218;-70
2022/09/15 12:50:35;;;;;;;2.47;1.40;;;20.50;71.70;;;;;;5046987;28;20221;-73
2022/09/15 12:53:11;;;;;;;3.85;1.95;;;20.40;72.50;;;;;;5053047;28;20206;-71
2022/09/15 12:55:48;;;;;;;2.45;1.50;;;20.30;73.10;;;;;;5040110;28;20206;-71
2022/09/15 12:58:18;;;;;;;3.05;1.50;;;20.30;73.90;;;;;;5054140;28;20725;-70
2022/09/15 13:00:46;;;;;;;4.13;2.00;;;20.20;74.50;;;;;;5044672;28;20495;-69
2022/09/15 13:03:28;;;;;;;5.22;1.90;;;20.20;75.50;;;;;;5059783;28;20248;-68